Time;durP1;ratioP1;P1;durP2;ratioP2;P2;SDS_P1;SDS_P2;PMS_P1;PMS_P2;Temp;Humidity;BMP_temperature;BMP_pressure;BME280_temperature;BME280_humidity;BME280_pressure;Samples;Min_cycle;Max_cycle;Signal;HPM_P1;HPM_P2
2023/07/07 00:01:48;;;;;;;3.80;3.47;;;;;;;;;;5015165;28;20942;-78
2023/07/07 00:04:14;;;;;;;4.90;3.97;;;;;;;;;;5015171;28;20816;-78
2023/07/07 00:06:40;;;;;;;5.80;4.43;;;;;;;;;;5015180;28;20410;-78
2023/07/07 00:09:06;;;;;;;6.73;4.30;;;;;;;;;;5015059;28;20432;-78
2023/07/07 00:11:32;;;;;;;5.27;3.73;;;;;;;;;;5015105;28;20420;-78
2023/07/07 00:13:58;;;;;;;6.20;3.50;;;;;;;;;;5014448;28;21475;-78
2023/07/07 00:16:27;;;;;;;4.80;3.67;;;;;;;;;;5014932;28;20482;-78
2023/07/07 00:18:54;;;;;;;5.73;3.73;;;;;;;;;;5014952;28;20944;-78
2023/07/07 00:21:24;;;;;;;6.07;4.93;;;;;;;;;;5014822;28;21105;-78
2023/07/07 00:23:52;;;;;;;5.10;4.60;;;;;;;;;;5014839;28;20445;-78
2023/07/07 00:26:18;;;;;;;5.50;5.00;;;;;;;;;;5014795;28;20511;-78
2023/07/07 00:28:44;;;;;;;6.37;5.07;;;;;;;;;;5014397;28;20500;-78
2023/07/07 00:31:10;;;;;;;5.40;4.27;;;;;;;;;;5014800;28;20549;-78
2023/07/07 00:33:36;;;;;;;7.77;5.50;;;;;;;;;;5014650;28;20409;-78
2023/07/07 00:36:02;;;;;;;5.97;5.37;;;;;;;;;;5014286;28;20184;-78
2023/07/07 00:38:28;;;;;;;6.20;5.60;;;;;;;;;;5014537;28;20581;-78
2023/07/07 00:40:54;;;;;;;8.20;5.70;;;;;;;;;;5014599;28;20924;-78
2023/07/07 00:43:20;;;;;;;6.90;6.17;;;;;;;;;;5014457;28;20799;-78
2023/07/07 00:45:46;;;;;;;7.70;6.30;;;;;;;;;;5013964;28;20477;-77
2023/07/07 00:48:17;;;;;;;7.60;6.30;;;;;;;;;;5014400;28;20413;-78
2023/07/07 00:50:47;;;;;;;5.87;5.27;;;;;;;;;;5014375;28;20180;-78
2023/07/07 00:53:13;;;;;;;6.77;6.07;;;;;;;;;;5014362;28;20430;-78
2023/07/07 00:55:47;;;;;;;6.67;6.07;;;;;;;;;;5014242;28;20437;-77
2023/07/07 00:58:15;;;;;;;6.30;5.70;;;;;;;;;;5014339;28;20492;-78
2023/07/07 01:00:43;;;;;;;7.40;6.43;;;;;;;;;;5013860;28;20429;-85
2023/07/07 01:03:14;;;;;;;7.43;6.40;;;;;;;;;;5014161;28;20415;-77
2023/07/07 01:05:42;;;;;;;7.70;6.30;;;;;;;;;;5013993;28;20822;-78
2023/07/07 01:08:08;;;;;;;8.10;6.90;;;;;;;;;;5014113;28;20416;-78
2023/07/07 01:10:34;;;;;;;7.87;7.17;;;;;;;;;;5012812;28;20797;-78
2023/07/07 01:13:00;;;;;;;7.53;6.10;;;;;;;;;;5012768;28;20819;-78
2023/07/07 01:15:29;;;;;;;6.60;6.00;;;;;;;;;;5013390;28;20485;-76
2023/07/07 01:18:01;;;;;;;7.53;5.37;;;;;;;;;;5014028;28;20508;-80
2023/07/07 01:20:47;;;;;;;6.37;5.70;;;;;;;;;;5012334;28;20435;-78
2023/07/07 01:23:36;;;;;;;5.53;5.00;;;;;;;;;;5013825;28;20451;-78
2023/07/07 01:26:18;;;;;;;8.17;5.13;;;;;;;;;;5013669;28;20503;-88
2023/07/07 01:29:03;;;;;;;5.37;4.53;;;;;;;;;;5013471;28;20764;-79
2023/07/07 01:31:40;;;;;;;9.87;5.40;;;;;;;;;;5013715;28;20407;-79
2023/07/07 01:34:06;;;;;;;5.03;4.53;;;;;;;;;;5013671;28;20423;-78
2023/07/07 01:36:32;;;;;;;7.10;6.40;;;;;;;;;;5013715;28;20411;-78
2023/07/07 01:38:58;;;;;;;6.03;5.00;;;;;;;;;;5013653;28;20891;-77
2023/07/07 01:41:43;;;;;;;5.67;5.17;;;;;;;;;;5013843;28;20180;-78
2023/07/07 01:44:09;;;;;;;7.33;5.60;;;;;;;;;;5013104;28;20568;-77
2023/07/07 01:46:44;;;;;;;7.10;5.07;;;;;;;;;;5013539;28;20426;-78
2023/07/07 01:49:26;;;;;;;7.93;5.83;;;;;;;;;;5013522;28;20176;-81
2023/07/07 01:52:00;;;;;;;4.60;4.20;;;;;;;;;;5013407;28;20501;-78
2023/07/07 01:54:27;;;;;;;7.47;5.00;;;;;;;;;;5013416;28;20770;-79
2023/07/07 01:56:54;;;;;;;6.20;5.37;;;;;;;;;;5013286;28;20418;-80
2023/07/07 01:59:20;;;;;;;7.47;5.87;;;;;;;;;;5010333;28;20756;-84
2023/07/07 02:01:46;;;;;;;6.03;5.53;;;;;;;;;;4993670;28;20442;-80
2023/07/07 02:04:12;;;;;;;5.70;5.10;;;;;;;;;;4993669;28;20656;-79
2023/07/07 02:06:38;;;;;;;5.63;4.80;;;;;;;;;;4994114;28;20412;-78
2023/07/07 02:09:04;;;;;;;6.07;5.47;;;;;;;;;;4993677;28;20542;-78
2023/07/07 02:11:30;;;;;;;4.23;3.83;;;;;;;;;;4993597;28;20523;-78
2023/07/07 02:13:56;;;;;;;5.43;4.57;;;;;;;;;;4992082;28;20207;-77
2023/07/07 02:16:21;;;;;;;5.43;4.90;;;;;;;;;;4993454;28;20907;-78
2023/07/07 02:18:48;;;;;;;4.50;3.97;;;;;;;;;;4993588;28;20176;-79
2023/07/07 02:21:14;;;;;;;4.73;4.13;;;;;;;;;;4993519;28;20196;-78
2023/07/07 02:23:40;;;;;;;5.80;4.90;;;;;;;;;;4993544;28;20419;-78
2023/07/07 02:26:06;;;;;;;5.07;4.13;;;;;;;;;;4993365;28;20561;-78
2023/07/07 02:28:32;;;;;;;6.20;4.20;;;;;;;;;;4993167;28;20966;-78
2023/07/07 02:30:58;;;;;;;7.10;4.43;;;;;;;;;;4993738;28;20188;-78
2023/07/07 02:33:30;;;;;;;5.33;4.60;;;;;;;;;;4997372;28;20560;-78
2023/07/07 02:35:57;;;;;;;4.70;4.30;;;;;;;;;;4997345;28;20170;-78
2023/07/07 02:38:23;;;;;;;6.07;4.27;;;;;;;;;;4997125;28;20419;-78
2023/07/07 02:40:49;;;;;;;4.50;3.53;;;;;;;;;;4997192;28;20412;-78
2023/07/07 02:43:15;;;;;;;4.57;3.83;;;;;;;;;;4996893;28;20546;-77
2023/07/07 02:45:43;;;;;;;5.03;3.90;;;;;;;;;;4997111;28;20478;-78
2023/07/07 02:48:09;;;;;;;4.50;4.10;;;;;;;;;;4997132;28;20270;-78
2023/07/07 02:50:35;;;;;;;4.93;3.47;;;;;;;;;;4996999;28;20502;-79
2023/07/07 02:53:03;;;;;;;6.03;3.83;;;;;;;;;;4996883;28;20172;-79
2023/07/07 02:55:29;;;;;;;4.70;4.30;;;;;;;;;;4996953;28;20260;-80
2023/07/07 02:57:55;;;;;;;4.60;4.13;;;;;;;;;;4996840;28;20509;-79
2023/07/07 03:00:21;;;;;;;4.10;3.07;;;;;;;;;;4996519;28;20174;-81
2023/07/07 03:02:47;;;;;;;4.87;3.60;;;;;;;;;;4996776;28;20447;-80
2023/07/07 03:05:13;;;;;;;6.03;4.67;;;;;;;;;;4996604;28;20302;-80
2023/07/07 03:07:39;;;;;;;3.67;3.27;;;;;;;;;;4996653;28;20502;-80
2023/07/07 03:10:07;;;;;;;5.07;4.60;;;;;;;;;;4995333;28;20510;-80
2023/07/07 03:12:32;;;;;;;5.00;4.50;;;;;;;;;;4996695;28;20168;-80
2023/07/07 03:14:58;;;;;;;3.97;3.57;;;;;;;;;;4995987;28;20466;-80
2023/07/07 03:17:25;;;;;;;4.67;3.20;;;;;;;;;;4995323;28;20427;-80
2023/07/07 03:19:51;;;;;;;5.57;4.60;;;;;;;;;;4996431;28;20425;-80
2023/07/07 03:22:17;;;;;;;5.10;3.80;;;;;;;;;;4996469;28;20414;-81
2023/07/07 03:24:43;;;;;;;3.93;2.93;;;;;;;;;;4996338;28;20603;-80
2023/07/07 03:27:09;;;;;;;5.33;3.93;;;;;;;;;;4996338;28;20771;-80
2023/07/07 03:29:35;;;;;;;4.60;3.97;;;;;;;;;;4996014;28;20189;-80
2023/07/07 03:32:01;;;;;;;4.53;3.17;;;;;;;;;;4996270;28;20446;-80
2023/07/07 03:34:26;;;;;;;4.17;3.57;;;;;;;;;;4996214;28;20415;-81
2023/07/07 03:36:52;;;;;;;4.50;3.53;;;;;;;;;;4996229;28;20647;-81
2023/07/07 03:39:18;;;;;;;3.67;3.33;;;;;;;;;;4996212;28;20184;-80
2023/07/07 03:41:44;;;;;;;3.57;3.27;;;;;;;;;;4995788;28;20420;-78
2023/07/07 03:44:10;;;;;;;4.10;3.70;;;;;;;;;;4995426;28;20259;-79
2023/07/07 03:46:36;;;;;;;5.90;3.50;;;;;;;;;;4995856;28;20520;-78
2023/07/07 03:49:02;;;;;;;5.15;4.65;;;;;;;;;;4994854;28;20423;-78
2023/07/07 03:51:34;;;;;;;4.77;4.03;;;;;;;;;;4995856;28;20499;-78
2023/07/07 03:54:00;;;;;;;5.10;4.63;;;;;;;;;;4994705;28;20424;-78
2023/07/07 03:56:26;;;;;;;3.67;3.37;;;;;;;;;;4995815;28;20233;-78
2023/07/07 03:58:52;;;;;;;4.57;3.77;;;;;;;;;;4995429;28;20171;-87
2023/07/07 04:01:18;;;;;;;4.70;4.30;;;;;;;;;;4995805;28;20440;-85
2023/07/07 04:03:46;;;;;;;4.40;3.37;;;;;;;;;;4995513;28;20462;-78
2023/07/07 04:06:13;;;;;;;3.60;3.27;;;;;;;;;;4995674;28;20417;-80
2023/07/07 04:08:39;;;;;;;4.60;3.40;;;;;;;;;;4995614;28;20423;-78
2023/07/07 04:11:06;;;;;;;3.97;3.53;;;;;;;;;;4995525;28;20635;-78
2023/07/07 04:13:33;;;;;;;4.43;3.27;;;;;;;;;;4995148;28;20431;-83
2023/07/07 04:16:08;;;;;;;5.17;3.53;;;;;;;;;;4995185;28;20480;-78
2023/07/07 04:18:34;;;;;;;6.20;3.83;;;;;;;;;;4995398;28;20433;-79
2023/07/07 04:21:09;;;;;;;5.37;4.87;;;;;;;;;;4995288;28;20441;-78
2023/07/07 04:23:35;;;;;;;5.40;4.40;;;;;;;;;;4995174;28;20423;-77
2023/07/07 04:26:01;;;;;;;4.30;3.53;;;;;;;;;;4993954;28;20482;-78
2023/07/07 04:28:29;;;;;;;6.13;4.50;;;;;;;;;;4994827;28;20896;-81
2023/07/07 04:30:56;;;;;;;5.30;4.80;;;;;;;;;;4995207;28;20416;-77
2023/07/07 04:33:22;;;;;;;5.87;5.30;;;;;;;;;;4995084;28;20491;-78
2023/07/07 04:35:52;;;;;;;8.60;5.17;;;;;;;;;;4995059;28;20418;-78
2023/07/07 04:38:19;;;;;;;4.17;3.73;;;;;;;;;;4995022;28;20410;-78
2023/07/07 04:40:45;;;;;;;4.63;4.20;;;;;;;;;;4994838;28;20454;-77
2023/07/07 04:43:11;;;;;;;6.33;5.70;;;;;;;;;;4994586;28;20510;-82
2023/07/07 04:45:37;;;;;;;6.20;5.60;;;;;;;;;;4994337;28;20561;-81
2023/07/07 04:48:03;;;;;;;5.27;4.60;;;;;;;;;;4994424;28;20497;-82
2023/07/07 04:50:29;;;;;;;5.03;4.63;;;;;;;;;;4994256;28;20413;-82
2023/07/07 04:52:55;;;;;;;5.50;5.00;;;;;;;;;;4994552;28;20776;-81
2023/07/07 04:55:21;;;;;;;7.17;4.93;;;;;;;;;;4993863;28;20451;-81
2023/07/07 04:57:47;;;;;;;5.43;4.93;;;;;;;;;;4993935;28;20827;-80
2023/07/07 05:00:13;;;;;;;5.23;3.80;;;;;;;;;;4993267;28;20444;-81
2023/07/07 05:02:39;;;;;;;5.83;4.20;;;;;;;;;;4994412;28;20176;-81
2023/07/07 05:05:05;;;;;;;5.53;4.10;;;;;;;;;;4994318;28;20480;-81
2023/07/07 05:07:31;;;;;;;5.03;3.63;;;;;;;;;;4993026;28;20461;-80
2023/07/07 05:09:57;;;;;;;5.97;4.57;;;;;;;;;;4990354;28;20475;-81
2023/07/07 05:12:23;;;;;;;5.43;3.90;;;;;;;;;;4994293;28;20424;-82
2023/07/07 05:14:51;;;;;;;3.87;3.57;;;;;;;;;;4993710;28;20472;-84
2023/07/07 05:17:17;;;;;;;5.73;4.50;;;;;;;;;;4993893;28;20456;-82
2023/07/07 05:19:43;;;;;;;4.53;4.13;;;;;;;;;;4992984;28;20957;-84
2023/07/07 05:22:09;;;;;;;4.60;4.20;;;;;;;;;;4993529;28;20427;-79
2023/07/07 05:24:35;;;;;;;5.40;4.30;;;;;;;;;;4993730;28;20214;-86
2023/07/07 05:27:01;;;;;;;8.70;4.67;;;;;;;;;;4993795;28;20180;-84
2023/07/07 05:29:27;;;;;;;6.10;4.13;;;;;;;;;;4993629;28;20424;-85
2023/07/07 05:31:52;;;;;;;7.50;4.60;;;;;;;;;;4993965;28;20460;-85
2023/07/07 05:34:19;;;;;;;6.43;4.03;;;;;;;;;;4993937;28;20637;-84
2023/07/07 05:36:45;;;;;;;5.23;4.10;;;;;;;;;;4992693;28;20448;-84
2023/07/07 05:39:11;;;;;;;5.60;3.73;;;;;;;;;;4994080;28;20443;-83
2023/07/07 05:41:37;;;;;;;6.20;3.50;;;;;;;;;;4992607;28;20417;-81
2023/07/07 05:44:03;;;;;;;5.40;3.87;;;;;;;;;;4993376;28;20458;-80
2023/07/07 05:46:29;;;;;;;4.27;3.50;;;;;;;;;;4993658;28;20215;-80
2023/07/07 05:48:55;;;;;;;4.80;3.20;;;;;;;;;;4993759;28;20912;-83
2023/07/07 05:51:21;;;;;;;4.10;2.83;;;;;;;;;;4993709;28;20429;-82
2023/07/07 05:53:47;;;;;;;5.10;2.93;;;;;;;;;;4993812;28;20201;-78
2023/07/07 05:56:19;;;;;;;6.17;3.17;;;;;;;;;;4992395;28;20456;-81
2023/07/07 05:58:45;;;;;;;6.53;3.97;;;;;;;;;;4993345;28;20755;-79
2023/07/07 06:01:13;;;;;;;4.00;3.10;;;;;;;;;;4993344;28;20425;-81
2023/07/07 06:03:39;;;;;;;6.33;3.13;;;;;;;;;;4993332;28;20417;-79
2023/07/07 06:06:05;;;;;;;9.30;3.20;;;;;;;;;;4992969;28;20476;-81
2023/07/07 06:08:31;;;;;;;3.27;2.97;;;;;;;;;;4992890;28;20418;-80
2023/07/07 06:10:57;;;;;;;4.50;2.93;;;;;;;;;;4993572;28;20969;-81
2023/07/07 06:13:28;;;;;;;3.50;3.20;;;;;;;;;;4993123;28;20415;-80
2023/07/07 06:15:54;;;;;;;6.17;3.50;;;;;;;;;;4993510;28;20473;-79
2023/07/07 06:18:20;;;;;;;5.27;2.73;;;;;;;;;;4993585;28;20422;-81
2023/07/07 06:20:47;;;;;;;2.70;2.50;;;;;;;;;;4993533;28;20414;-79
2023/07/07 06:23:13;;;;;;;4.10;2.70;;;;;;;;;;4992169;28;20920;-79
2023/07/07 06:25:39;;;;;;;3.93;3.53;;;;;;;;;;4993346;28;20481;-78
2023/07/07 06:28:05;;;;;;;3.80;3.37;;;;;;;;;;5008264;28;20262;-78
2023/07/07 06:30:31;;;;;;;3.60;2.77;;;;;;;;;;4993424;28;20421;-78
2023/07/07 06:32:58;;;;;;;3.40;2.20;;;;;;;;;;4993424;28;20176;-79
2023/07/07 06:35:25;;;;;;;4.63;3.20;;;;;;;;;;4993415;28;20930;-79
2023/07/07 06:37:51;;;;;;;4.40;3.20;;;;;;;;;;4991969;28;20801;-79
2023/07/07 06:40:16;;;;;;;3.00;2.60;;;;;;;;;;4993582;28;20470;-78
2023/07/07 06:42:42;;;;;;;4.83;2.33;;;;;;;;;;4992892;28;20535;-78
2023/07/07 06:45:08;;;;;;;3.53;2.03;;;;;;;;;;4993252;28;21003;-78
2023/07/07 06:47:34;;;;;;;4.10;2.60;;;;;;;;;;4993227;28;20694;-78
2023/07/07 06:50:00;;;;;;;3.53;2.60;;;;;;;;;;4993192;28;20422;-79
2023/07/07 06:52:26;;;;;;;3.40;1.90;;;;;;;;;;4991946;28;20451;-79
2023/07/07 06:54:56;;;;;;;3.50;2.43;;;;;;;;;;4991918;28;20514;-79
2023/07/07 06:57:22;;;;;;;3.13;2.30;;;;;;;;;;4993216;28;20191;-79
2023/07/07 06:59:48;;;;;;;2.40;2.10;;;;;;;;;;4992821;28;20424;-79
2023/07/07 07:02:14;;;;;;;3.90;2.50;;;;;;;;;;4993139;28;20216;-79
2023/07/07 07:04:40;;;;;;;4.20;2.40;;;;;;;;;;4993040;28;20218;-80
2023/07/07 07:07:08;;;;;;;2.00;1.63;;;;;;;;;;4992958;28;20411;-80
2023/07/07 07:09:34;;;;;;;3.40;1.83;;;;;;;;;;4993055;28;20433;-80
2023/07/07 07:12:00;;;;;;;2.13;1.53;;;;;;;;;;4993074;28;20407;-78
2023/07/07 07:14:26;;;;;;;2.60;1.33;;;;;;;;;;4991107;28;20223;-78
2023/07/07 07:16:52;;;;;;;3.67;2.03;;;;;;;;;;4993103;28;20184;-80
2023/07/07 07:19:18;;;;;;;3.50;1.87;;;;;;;;;;4996809;28;20506;-79
2023/07/07 07:21:43;;;;;;;2.23;1.50;;;;;;;;;;4996482;28;20179;-82
2023/07/07 07:24:09;;;;;;;5.97;2.07;;;;;;;;;;4996284;28;20419;-79
2023/07/07 07:26:35;;;;;;;2.47;0.97;;;;;;;;;;4996345;28;20537;-79
2023/07/07 07:29:01;;;;;;;3.20;1.30;;;;;;;;;;4996016;28;20179;-79
2023/07/07 07:31:27;;;;;;;2.57;1.40;;;;;;;;;;4996254;28;20185;-80
2023/07/07 07:33:54;;;;;;;2.37;1.20;;;;;;;;;;4996204;28;20302;-80
2023/07/07 07:36:20;;;;;;;3.40;1.63;;;;;;;;;;4996113;28;20419;-80
2023/07/07 07:38:46;;;;;;;2.80;1.50;;;;;;;;;;4996038;28;20936;-80
2023/07/07 07:41:12;;;;;;;1.97;1.27;;;;;;;;;;4996078;28;20461;-79
2023/07/07 07:43:38;;;;;;;2.97;0.90;;;;;;;;;;4995684;28;20402;-80
2023/07/07 07:46:04;;;;;;;1.80;1.33;;;;;;;;;;4995772;28;20482;-79
2023/07/07 07:48:30;;;;;;;3.47;1.13;;;;;;;;;;4995961;28;20415;-81
2023/07/07 07:50:56;;;;;;;3.93;1.00;;;;;;;;;;4996259;28;20415;-80
2023/07/07 07:53:22;;;;;;;3.07;1.30;;;;;;;;;;4995887;28;20180;-80
2023/07/07 07:55:48;;;;;;;3.93;1.40;;;;;;;;;;4995530;28;20633;-81
2023/07/07 07:58:14;;;;;;;2.30;1.43;;;;;;;;;;4995345;28;20580;-82
2023/07/07 08:00:40;;;;;;;3.00;1.67;;;;;;;;;;4995916;28;20414;-79
2023/07/07 08:03:06;;;;;;;2.10;1.43;;;;;;;;;;4995232;28;20180;-81
2023/07/07 08:05:32;;;;;;;1.40;0.90;;;;;;;;;;4993984;28;20207;-80
2023/07/07 08:07:58;;;;;;;5.00;1.20;;;;;;;;;;4993769;28;20411;-81
2023/07/07 08:10:24;;;;;;;3.37;1.60;;;;;;;;;;4994970;28;20191;-80
2023/07/07 08:12:50;;;;;;;3.40;1.50;;;;;;;;;;4994627;28;20957;-81
2023/07/07 08:15:16;;;;;;;3.23;1.30;;;;;;;;;;4994611;28;20474;-79
2023/07/07 08:17:42;;;;;;;2.70;1.30;;;;;;;;;;4994955;28;20449;-79
2023/07/07 08:20:16;;;;;;;1.13;0.80;;;;;;;;;;4995176;28;20179;-81
2023/07/07 08:22:41;;;;;;;3.27;1.13;;;;;;;;;;4995049;28;20966;-80
2023/07/07 08:25:08;;;;;;;4.43;2.30;;;;;;;;;;4995272;28;20514;-81
2023/07/07 08:27:33;;;;;;;3.87;1.37;;;;;;;;;;4994900;28;20263;-80
2023/07/07 08:29:59;;;;;;;4.80;1.40;;;;;;;;;;4994006;28;20422;-79
2023/07/07 08:32:25;;;;;;;1.73;1.10;;;;;;;;;;4995199;28;20215;-79
2023/07/07 08:34:52;;;;;;;2.00;1.13;;;;;;;;;;4993820;28;20267;-79
2023/07/07 08:37:19;;;;;;;1.50;1.10;;;;;;;;;;4995101;28;20176;-79
2023/07/07 08:39:45;;;;;;;6.80;1.53;;;;;;;;;;4995030;28;20415;-80
2023/07/07 08:42:38;;;;;;;1.47;0.90;;;;;;;;;;4994671;28;20407;-79
2023/07/07 08:45:05;;;;;;;2.57;1.57;;;;;;;;;;4993842;28;20493;-79
2023/07/07 08:47:37;;;;;;;2.27;1.03;;;;;;;;;;4994803;28;20422;-80
2023/07/07 08:50:06;;;;;;;1.73;0.97;;;;;;;;;;4994782;28;20418;-80
2023/07/07 08:52:44;;;;;;;1.87;1.00;;;;;;;;;;4993361;28;20923;-81
2023/07/07 08:55:13;;;;;;;1.23;0.70;;;;;;;;;;4993401;28;20482;-86
2023/07/07 08:57:43;;;;;;;1.30;1.17;;;;;;;;;;4995044;28;20426;-81
2023/07/07 09:00:20;;;;;;;2.00;0.50;;;;;;;;;;4995402;28;20935;-83
2023/07/07 09:02:57;;;;;;;1.80;0.80;;;;;;;;;;4995327;28;20418;-84
2023/07/07 09:05:36;;;;;;;1.30;0.73;;;;;;;;;;4994624;28;20962;-80
2023/07/07 09:08:25;;;;;;;2.20;0.97;;;;;;;;;;4994455;28;20418;-79
2023/07/07 09:11:16;;;;;;;1.47;0.50;;;;;;;;;;4994465;28;20411;-80
2023/07/07 09:13:45;;;;;;;2.03;1.07;;;;;;;;;;4994119;28;20430;-80
2023/07/07 09:16:17;;;;;;;1.77;0.83;;;;;;;;;;4994071;28;20454;-88
2023/07/07 09:18:46;;;;;;;3.83;1.33;;;;;;;;;;4994306;28;20814;-79
2023/07/07 09:21:24;;;;;;;4.10;1.07;;;;;;;;;;4992949;28;20795;-87
2023/07/07 09:23:54;;;;;;;1.93;0.90;;;;;;;;;;4994263;28;20419;-85
2023/07/07 09:26:33;;;;;;;5.63;1.50;;;;;;;;;;4992857;28;20485;-86
2023/07/07 09:29:02;;;;;;;1.00;0.40;;;;;;;;;;4993762;28;20403;-87
2023/07/07 09:31:27;;;;;;;1.90;0.67;;;;;;;;;;4994030;28;20422;-86
2023/07/07 09:33:54;;;;;;;1.80;1.00;;;;;;;;;;4994034;28;20805;-87
2023/07/07 09:36:24;;;;;;;3.40;1.10;;;;;;;;;;4994082;28;20189;-81
2023/07/07 09:38:53;;;;;;;1.07;0.50;;;;;;;;;;4993982;28;20449;-86
2023/07/07 09:41:22;;;;;;;1.93;0.60;;;;;;;;;;4992312;28;20423;-86
2023/07/07 09:44:03;;;;;;;3.03;0.80;;;;;;;;;;4993568;28;20418;-85
2023/07/07 09:46:36;;;;;;;1.80;0.63;;;;;;;;;;4993993;28;20422;-86
2023/07/07 09:49:05;;;;;;;1.30;0.40;;;;;;;;;;4993813;28;21029;-84
2023/07/07 09:51:49;;;;;;;3.50;0.73;;;;;;;;;;4993891;28;20433;-86
2023/07/07 09:54:16;;;;;;;1.53;0.50;;;;;;;;;;4993758;28;20411;-85
2023/07/07 09:56:47;;;;;;;1.93;0.80;;;;;;;;;;4993786;28;20419;-86
2023/07/07 09:59:33;;;;;;;1.27;0.40;;;;;;;;;;4993390;28;20440;-80
2023/07/07 10:02:00;;;;;;;1.50;0.60;;;;;;;;;;4993360;28;20505;-86
2023/07/07 10:04:28;;;;;;;1.37;0.60;;;;;;;;;;4993594;28;20454;-85
2023/07/07 10:06:56;;;;;;;1.30;0.60;;;;;;;;;;4993539;28;20419;-84
2023/07/07 10:09:22;;;;;;;1.37;0.37;;;;;;;;;;4993316;28;20438;-81
2023/07/07 10:11:49;;;;;;;0.87;0.50;;;;;;;;;;4992594;28;20855;-80
2023/07/07 10:14:16;;;;;;;1.80;0.70;;;;;;;;;;4993078;28;20802;-79
2023/07/07 10:16:51;;;;;;;1.47;0.40;;;;;;;;;;4993560;28;20483;-84
2023/07/07 10:19:19;;;;;;;1.20;0.60;;;;;;;;;;4993482;28;20445;-80
2023/07/07 10:21:44;;;;;;;1.10;0.87;;;;;;;;;;4993502;28;20421;-80
2023/07/07 10:24:11;;;;;;;2.60;0.60;;;;;;;;;;4993433;28;20407;-79
2023/07/07 10:26:45;;;;;;;1.07;0.43;;;;;;;;;;4992323;28;20237;-79
2023/07/07 10:29:13;;;;;;;0.80;0.43;;;;;;;;;;4993160;28;20939;-84
2023/07/07 10:31:43;;;;;;;2.43;0.80;;;;;;;;;;4993386;28;20965;-85
2023/07/07 10:34:28;;;;;;;1.37;0.47;;;;;;;;;;4993239;28;20457;-80
2023/07/07 10:36:55;;;;;;;3.10;0.43;;;;;;;;;;4993290;28;20415;-80
2023/07/07 10:39:26;;;;;;;1.50;0.53;;;;;;;;;;4992267;28;20477;-83
2023/07/07 10:41:52;;;;;;;2.07;0.80;;;;;;;;;;4985681;28;20399;-79
2023/07/07 10:44:18;;;;;;;1.37;0.80;;;;;;;;;;4983581;28;20482;-79
2023/07/07 10:46:44;;;;;;;4.43;4.00;;;;;;;;;;4988132;28;20473;-80
2023/07/07 10:49:17;;;;;;;2.73;0.97;;;;;;;;;;4992126;28;20837;-82
2023/07/07 10:51:52;;;;;;;1.90;1.20;;;;;;;;;;4993289;28;20419;-84
2023/07/07 10:54:20;;;;;;;1.90;1.13;;;;;;;;;;4996884;28;20414;-83
2023/07/07 10:56:47;;;;;;;7.30;6.60;;;;;;;;;;4996594;28;20421;-83
2023/07/07 10:59:30;;;;;;;1.53;1.10;;;;;;;;;;4995526;28;20477;-79
2023/07/07 11:02:03;;;;;;;3.37;2.53;;;;;;;;;;4996711;28;20923;-79
2023/07/07 11:04:55;;;;;;;1.90;0.60;;;;;;;;;;4996763;28;20517;-79
2023/07/07 11:07:57;;;;;;;3.47;0.80;;;;;;;;;;4988412;28;20430;-80
2023/07/07 11:10:41;;;;;;;2.03;1.47;;;;;;;;;;4974867;28;20510;-80
2023/07/07 11:13:16;;;;;;;5.23;3.23;;;;;;;;;;4994522;28;20912;-79
2023/07/07 11:15:53;;;;;;;5.33;4.40;;;;;;;;;;4996514;28;20574;-81
2023/07/07 11:18:26;;;;;;;1.93;1.17;;;;;;;;;;4996475;28;20414;-84
2023/07/07 11:20:59;;;;;;;1.40;0.93;;;;;;;;;;4996508;28;20407;-81
2023/07/07 11:23:30;;;;;;;3.23;1.00;;;;;;;;;;4995260;28;20413;-81
2023/07/07 11:25:58;;;;;;;5.90;3.73;;;;;;;;;;4995279;28;20473;-80
2023/07/07 11:28:43;;;;;;;3.60;1.43;;;;;;;;;;4995505;28;20506;-84
2023/07/07 11:31:29;;;;;;;2.97;0.70;;;;;;;;;;4995783;28;20914;-79
2023/07/07 11:34:07;;;;;;;2.80;0.60;;;;;;;;;;4993961;28;20415;-80
2023/07/07 11:36:44;;;;;;;0.90;0.37;;;;;;;;;;4996304;28;20429;-80
2023/07/07 11:39:39;;;;;;;1.27;0.47;;;;;;;;;;4996127;28;20421;-79
2023/07/07 11:42:05;;;;;;;2.90;0.50;;;;;;;;;;4959858;28;20412;-80
2023/07/07 11:44:36;;;;;;;1.50;0.40;;;;;;;;;;4996056;28;20462;-80
2023/07/07 11:47:11;;;;;;;0.90;0.30;;;;;;;;;;4996095;28;20415;-80
2023/07/07 11:49:37;;;;;;;1.53;0.70;;;;;;;;;;4996026;28;20981;-80
2023/07/07 11:52:27;;;;;;;2.03;0.77;;;;;;;;;;4995969;28;20462;-79
2023/07/07 11:55:02;;;;;;;1.80;0.57;;;;;;;;;;4995942;28;20230;-81
2023/07/07 11:57:40;;;;;;;1.30;0.57;;;;;;;;;;4994256;28;20454;-79
2023/07/07 12:00:25;;;;;;;1.13;0.60;;;;;;;;;;4995855;28;20407;-84
2023/07/07 12:02:56;;;;;;;1.10;0.30;;;;;;;;;;4995513;28;20442;-80
2023/07/07 12:05:27;;;;;;;1.40;0.40;;;;;;;;;;4995620;28;20533;-79
2023/07/07 12:08:04;;;;;;;2.80;0.87;;;;;;;;;;4995673;28;20426;-80
2023/07/07 12:10:36;;;;;;;1.40;0.47;;;;;;;;;;4995385;28;20970;-79
2023/07/07 12:13:10;;;;;;;1.40;0.70;;;;;;;;;;4995313;28;20436;-80
2023/07/07 12:15:38;;;;;;;3.30;0.67;;;;;;;;;;4995397;28;20466;-80
2023/07/07 12:18:22;;;;;;;2.20;0.90;;;;;;;;;;4995469;28;20915;-79
2023/07/07 12:20:50;;;;;;;1.43;0.43;;;;;;;;;;4995504;28;20402;-79
2023/07/07 12:23:18;;;;;;;1.83;1.00;;;;;;;;;;4994112;28;20415;-80
2023/07/07 12:25:46;;;;;;;1.60;0.93;;;;;;;;;;4995287;28;20562;-79
2023/07/07 12:28:12;;;;;;;2.17;1.10;;;;;;;;;;4994205;28;20466;-79
2023/07/07 12:30:42;;;;;;;1.43;0.90;;;;;;;;;;4994621;28;20924;-82
2023/07/07 12:33:10;;;;;;;1.53;0.90;;;;;;;;;;4995105;28;20835;-79
2023/07/07 12:35:53;;;;;;;1.37;0.87;;;;;;;;;;4995121;28;20407;-81
2023/07/07 12:38:31;;;;;;;2.10;0.97;;;;;;;;;;4993692;28;20430;-83
2023/07/07 12:41:02;;;;;;;2.53;0.93;;;;;;;;;;4993124;28;20904;-83
2023/07/07 12:43:30;;;;;;;1.47;0.87;;;;;;;;;;4990689;28;20431;-81
2023/07/07 12:45:56;;;;;;;1.10;0.60;;;;;;;;;;4984752;28;20959;-79
2023/07/07 12:48:26;;;;;;;3.50;1.20;;;;;;;;;;4994633;28;20415;-84
2023/07/07 12:50:57;;;;;;;1.50;1.10;;;;;;;;;;4995635;28;20427;-88
2023/07/07 12:53:30;;;;;;;3.43;1.00;;;;;;;;;;5014142;28;20532;-81
2023/07/07 12:55:58;;;;;;;1.50;0.60;;;;;;;;;;5012885;28;20500;-88
2023/07/07 12:58:42;;;;;;;3.47;1.00;;;;;;;;;;5013769;28;20421;-85
2023/07/07 13:01:11;;;;;;;3.23;1.00;;;;;;;;;;4988289;28;20447;-81
2023/07/07 13:04:00;;;;;;;1.40;0.90;;;;;;;;;;4993064;28;20423;-84
2023/07/07 13:06:32;;;;;;;1.60;0.80;;;;;;;;;;4993453;28;20481;-83
2023/07/07 13:09:16;;;;;;;0.70;0.60;;;;;;;;;;4993035;28;20761;-81
2023/07/07 13:11:46;;;;;;;1.37;0.90;;;;;;;;;;4994046;28;20418;-80
2023/07/07 13:14:31;;;;;;;1.40;0.80;;;;;;;;;;4994011;28;20912;-84
2023/07/07 13:16:58;;;;;;;4.97;1.27;;;;;;;;;;4993980;28;20430;-81
2023/07/07 13:19:24;;;;;;;1.93;1.10;;;;;;;;;;4993456;28;20451;-81
2023/07/07 13:21:51;;;;;;;1.93;1.43;;;;;;;;;;4989746;28;20986;-83
2023/07/07 13:24:18;;;;;;;2.03;1.37;;;;;;;;;;4997650;28;20415;-83
2023/07/07 13:26:44;;;;;;;1.17;0.63;;;;;;;;;;4993328;28;20427;-82
2023/07/07 13:29:10;;;;;;;4.00;1.37;;;;;;;;;;4993965;28;20422;-81
2023/07/07 13:31:40;;;;;;;1.80;1.03;;;;;;;;;;4993942;28;20427;-80
2023/07/07 13:34:11;;;;;;;1.70;1.10;;;;;;;;;;4992711;28;20179;-85
2023/07/07 13:36:37;;;;;;;2.83;0.93;;;;;;;;;;4992218;28;20427;-84
2023/07/07 13:39:04;;;;;;;4.30;1.20;;;;;;;;;;4993119;28;20777;-83
2023/07/07 13:41:31;;;;;;;2.07;1.40;;;;;;;;;;4993045;28;20270;-82
2023/07/07 13:44:00;;;;;;;1.87;1.10;;;;;;;;;;4993775;28;20440;-84
2023/07/07 13:46:27;;;;;;;2.57;1.07;;;;;;;;;;4993039;28;20529;-84
2023/07/07 13:48:54;;;;;;;1.50;1.30;;;;;;;;;;4993497;28;20505;-83
2023/07/07 13:51:28;;;;;;;2.43;0.77;;;;;;;;;;4993336;28;20788;-80
2023/07/07 13:53:55;;;;;;;2.43;0.97;;;;;;;;;;4993741;28;20411;-84
2023/07/07 13:56:21;;;;;;;1.50;1.40;;;;;;;;;;4993191;28;20410;-85
2023/07/07 13:58:48;;;;;;;2.30;0.93;;;;;;;;;;4993655;28;20465;-84
2023/07/07 14:01:18;;;;;;;1.77;1.30;;;;;;;;;;4993564;28;20172;-82
2023/07/07 14:03:48;;;;;;;1.67;0.83;;;;;;;;;;4993783;28;20774;-83
2023/07/07 14:06:17;;;;;;;2.00;1.23;;;;;;;;;;4993475;28;20470;-82
2023/07/07 14:08:43;;;;;;;2.67;1.50;;;;;;;;;;4993283;28;20475;-85
2023/07/07 14:11:16;;;;;;;1.73;0.83;;;;;;;;;;4993263;28;20426;-85
2023/07/07 14:13:42;;;;;;;2.13;0.70;;;;;;;;;;4993423;28;20950;-80
2023/07/07 14:16:17;;;;;;;4.07;1.63;;;;;;;;;;4992029;28;20474;-80
2023/07/07 14:18:46;;;;;;;2.33;1.00;;;;;;;;;;4993423;28;20175;-80
2023/07/07 14:21:14;;;;;;;2.67;1.17;;;;;;;;;;4993393;28;20415;-80
2023/07/07 14:23:43;;;;;;;1.40;1.00;;;;;;;;;;4993410;28;20438;-84
2023/07/07 14:26:14;;;;;;;2.97;1.20;;;;;;;;;;4993782;28;20834;-82
2023/07/07 14:28:40;;;;;;;2.30;1.23;;;;;;;;;;4997454;28;20772;-85
2023/07/07 14:31:08;;;;;;;2.77;1.50;;;;;;;;;;4997254;28;20415;-81
2023/07/07 14:33:38;;;;;;;2.20;1.63;;;;;;;;;;4997153;28;20422;-79
2023/07/07 14:36:14;;;;;;;1.30;1.07;;;;;;;;;;4994091;28;20436;-80
2023/07/07 14:38:52;;;;;;;2.50;1.20;;;;;;;;;;4997556;28;20406;-80
2023/07/07 14:41:20;;;;;;;6.40;2.30;;;;;;;;;;4996675;28;20442;-80
2023/07/07 14:43:46;;;;;;;2.30;0.50;;;;;;;;;;4997048;28;20826;-80
2023/07/07 14:46:16;;;;;;;3.43;1.43;;;;;;;;;;4996773;28;20505;-80
2023/07/07 14:48:45;;;;;;;3.30;1.33;;;;;;;;;;4996864;28;20659;-80
2023/07/07 14:51:14;;;;;;;3.37;1.63;;;;;;;;;;4996916;28;20784;-79
2023/07/07 14:53:40;;;;;;;1.90;1.10;;;;;;;;;;4996743;28;20403;-79
2023/07/07 14:56:13;;;;;;;2.27;1.00;;;;;;;;;;4996377;28;20493;-79